Terminal Aerodrome Forecast
Issued by NWS

Home | Current Version | Previous Version | Graphics & Text | Print | Product List | Glossary On
Versions: 1 2 3 4 5 6 7 8 9 10 11 12 13 14 15
635
FTUS43 KBIS 242331
TAFJMS
TAF
KJMS 242331Z 2500/2524 17017G23KT P6SM SKC
     FM250300 16009KT P6SM FEW110 FEW250
     FM251000 04005KT P6SM FEW100 SCT200
     FM251800 35009KT P6SM SCT250=

USA.gov is the U.S. government's official web portal to all federal, state and local government web resources and services.